Grant, NE

4:21 PM MDT on July 30, 2016 (GMT -0600)
Sisco Fertilizer | | Change Station

Elev 3415 ft 40.84 °N, 101.40 °W | Updated 3 seconds ago

Clear
Clear
86.3 °F
Feels Like 87 °F
N
17.0
Wind Variable Wind from SE
Gusts 25.0 mph

Today
High -- | Low -- °F
--% Chance of Precip.
Yesterday
High -- | Low -- °F
Precip. -- in
Pressure 29.93 in
Visibility 10.0 miles
Clouds Clear
Heat Index 87 °F
Dew Point 64 °F
Humidity 47%
Rainfall 0.00 in
Snow Depth Not available.
5:41 AM 8:04 PM
Waning Crescent, 10% visible
METAR KOGA 302215Z AUTO 14010G16KT 10SM CLR 32/16 A2993 RMK AO2 T03150155
Pressure 29.93 in
Visibility 10.0 miles
Clouds Clear
Heat Index 87 °F
Dew Point 64 °F
Humidity 47%
Rainfall 0.00 in
Snow Depth Not available.
5:41 AM 8:04 PM
Waning Crescent, 10% visible
METAR KOGA 302215Z AUTO 14010G16KT 10SM CLR 32/16 A2993 RMK AO2 T03150155

10-Day Weather Forecast

Almanac

Astronomy

Jul. 30, 2016 Rise Set
Actual Time
Civil Twilight
Nautical Twilight
Astronomical Twilight
Moon
Length of Visible Light
Length of Day
Tomorrow will be .
, % of the Moon is Illuminated

Today's Extremes

State Highs State Lows

Community

WunderPhotos

Upload Photos

1,928,663 photos uploaded!

WunderBlog® & News

Nearby

Air Quality

  Air Quality AQ Index Pollutant
Not available.

Snow Depth

Station Depth Elevation

Earthquake Activity

City Distance Mag. Time & Date
Minimum magnitude displayed is 2.5.

Coastal Water Temperatures

Place Temperature

Stations

Nearby Weather Stations

Station Location Temp. Windchill Dew Point Humidity Wind Precip. Elev Updated Type
                   

Watches & Warnings

There are currently no watches in effect.